Aviation Digital Data Service (ADDS)

Output produced by METARs form (1844 UTC 18 June 2019)
found at http://www.aviationweather.gov/metar/data/
 
METAR text: EICK 181830Z 20007KT 9999 FEW022 SCT060 15/10 Q1011 NOSIG
Conditions at: EICK (CORK ARPT/CORCAI, IE) observed 1830 UTC 18 June 2019
Temperature: 15.0°C (59°F)
Dewpoint: 10.0°C (50°F) [RH = 72%]
Pressure (altimeter): 29.85 inches Hg (1011.0 mb)
Winds: from the SSW (200 degrees) at 8 MPH (7 knots; 3.6 m/s)
Visibility: 6 or more miles (10+ km)
Ceiling: at least 12,000 feet AGL
Clouds: few clouds at 2200 feet AGL
scattered clouds at 6000 feet AGL
Weather: no significant weather observed at this time

METAR text: EICK 181800Z 20007KT 160V240 9999 FEW022 15/10 Q1011 NOSIG
Conditions at: EICK (CORK ARPT/CORCAI, IE) observed 1800 UTC 18 June 2019
Temperature: 15.0°C (59°F)
Dewpoint: 10.0°C (50°F) [RH = 72%]
Pressure (altimeter): 29.85 inches Hg (1011.0 mb)
Winds: from the SSW (200 degrees) at 8 MPH (7 knots; 3.6 m/s)
Visibility: 6 or more miles (10+ km)
Ceiling: at least 12,000 feet AGL
Clouds: few clouds at 2200 feet AGL
Weather: no significant weather observed at this time

METAR text: EICK 181730Z 20007KT 9999 SCT022 15/11 Q1011 NOSIG
Conditions at: EICK (CORK ARPT/CORCAI, IE) observed 1730 UTC 18 June 2019
Temperature: 15.0°C (59°F)
Dewpoint: 11.0°C (52°F) [RH = 77%]
Pressure (altimeter): 29.85 inches Hg (1011.0 mb)
Winds: from the SSW (200 degrees) at 8 MPH (7 knots; 3.6 m/s)
Visibility: 6 or more miles (10+ km)
Ceiling: at least 12,000 feet AGL
Clouds: scattered clouds at 2200 feet AGL
Weather: no significant weather observed at this time

METAR text: EICK 181700Z 19008KT 160V240 9999 SCT022 SCT040 15/11 Q1011 NOSIG
Conditions at: EICK (CORK ARPT/CORCAI, IE) observed 1700 UTC 18 June 2019
Temperature: 15.0°C (59°F)
Dewpoint: 11.0°C (52°F) [RH = 77%]
Pressure (altimeter): 29.85 inches Hg (1011.0 mb)
Winds: from the S (190 degrees) at 9 MPH (8 knots; 4.1 m/s)
Visibility: 6 or more miles (10+ km)
Ceiling: at least 12,000 feet AGL
Clouds: scattered clouds at 2200 feet AGL
scattered clouds at 4000 feet AGL
Weather: no significant weather observed at this time

METAR text: EICK 181630Z 18007KT 120V220 9999 SCT024 SCT070 16/10 Q1011 NOSIG
Conditions at: EICK (CORK ARPT/CORCAI, IE) observed 1630 UTC 18 June 2019
Temperature: 16.0°C (61°F)
Dewpoint: 10.0°C (50°F) [RH = 68%]
Pressure (altimeter): 29.85 inches Hg (1011.0 mb)
Winds: from the S (180 degrees) at 8 MPH (7 knots; 3.6 m/s)
Visibility: 6 or more miles (10+ km)
Ceiling: at least 12,000 feet AGL
Clouds: scattered clouds at 2400 feet AGL
scattered clouds at 7000 feet AGL
Weather: no significant weather observed at this time

METAR text: EICK 181600Z 19007KT 140V230 9999 FEW022 BKN070 16/09 Q1012 NOSIG
Conditions at: EICK (CORK ARPT/CORCAI, IE) observed 1600 UTC 18 June 2019
Temperature: 16.0°C (61°F)
Dewpoint: 9.0°C (48°F) [RH = 63%]
Pressure (altimeter): 29.88 inches Hg (1012.0 mb)
Winds: from the S (190 degrees) at 8 MPH (7 knots; 3.6 m/s)
Visibility: 6 or more miles (10+ km)
Ceiling: 7000 feet AGL
Clouds: few clouds at 2200 feet AGL
broken clouds at 7000 feet AGL
Weather: no significant weather observed at this time

METAR text: EICK 181530Z 21008KT 180V250 9999 FEW018 BKN070 16/10 Q1012 NOSIG
Conditions at: EICK (CORK ARPT/CORCAI, IE) observed 1530 UTC 18 June 2019
Temperature: 16.0°C (61°F)
Dewpoint: 10.0°C (50°F) [RH = 68%]
Pressure (altimeter): 29.88 inches Hg (1012.0 mb)
Winds: from the SSW (210 degrees) at 9 MPH (8 knots; 4.1 m/s)
Visibility: 6 or more miles (10+ km)
Ceiling: 7000 feet AGL
Clouds: few clouds at 1800 feet AGL
broken clouds at 7000 feet AGL
Weather: no significant weather observed at this time

METAR text: EICK 181500Z 20007KT 160V230 9999 FEW018 BKN070 15/10 Q1012 NOSIG
Conditions at: EICK (CORK ARPT/CORCAI, IE) observed 1500 UTC 18 June 2019
Temperature: 15.0°C (59°F)
Dewpoint: 10.0°C (50°F) [RH = 72%]
Pressure (altimeter): 29.88 inches Hg (1012.0 mb)
Winds: from the SSW (200 degrees) at 8 MPH (7 knots; 3.6 m/s)
Visibility: 6 or more miles (10+ km)
Ceiling: 7000 feet AGL
Clouds: few clouds at 1800 feet AGL
broken clouds at 7000 feet AGL
Weather: no significant weather observed at this time

METAR text: EICK 181430Z 17008KT 9999 FEW015 BKN050 BKN250 15/09 Q1012 NOSIG
Conditions at: EICK (CORK ARPT/CORCAI, IE) observed 1430 UTC 18 June 2019
Temperature: 15.0°C (59°F)
Dewpoint: 9.0°C (48°F) [RH = 67%]
Pressure (altimeter): 29.88 inches Hg (1012.0 mb)
Winds: from the S (170 degrees) at 9 MPH (8 knots; 4.1 m/s)
Visibility: 6 or more miles (10+ km)
Ceiling: 5000 feet AGL
Clouds: few clouds at 1500 feet AGL
broken clouds at 5000 feet AGL
broken clouds at 25000 feet AGL
Weather: no significant weather observed at this time

METAR text: EICK 181400Z 18008KT 9999 FEW015 BKN046 OVC250 15/08 Q1012 NOSIG
Conditions at: EICK (CORK ARPT/CORCAI, IE) observed 1400 UTC 18 June 2019
Temperature: 15.0°C (59°F)
Dewpoint: 8.0°C (46°F) [RH = 63%]
Pressure (altimeter): 29.88 inches Hg (1012.0 mb)
Winds: from the S (180 degrees) at 9 MPH (8 knots; 4.1 m/s)
Visibility: 6 or more miles (10+ km)
Ceiling: 4600 feet AGL
Clouds: few clouds at 1500 feet AGL
broken clouds at 4600 feet AGL
overcast cloud deck at 25000 feet AGL
Weather: no significant weather observed at this time

METAR text: EICK 181330Z 18005KT 150V220 9999 SCT025 BKN050 15/09 Q1012 NOSIG
Conditions at: EICK (CORK ARPT/CORCAI, IE) observed 1330 UTC 18 June 2019
Temperature: 15.0°C (59°F)
Dewpoint: 9.0°C (48°F) [RH = 67%]
Pressure (altimeter): 29.88 inches Hg (1012.0 mb)
Winds: from the S (180 degrees) at 6 MPH (5 knots; 2.6 m/s)
Visibility: 6 or more miles (10+ km)
Ceiling: 5000 feet AGL
Clouds: scattered clouds at 2500 feet AGL
broken clouds at 5000 feet AGL
Weather: no significant weather observed at this time

METAR text: EICK 181300Z 17005KT 140V220 9999 SCT022 BKN050 15/10 Q1012 NOSIG
Conditions at: EICK (CORK ARPT/CORCAI, IE) observed 1300 UTC 18 June 2019
Temperature: 15.0°C (59°F)
Dewpoint: 10.0°C (50°F) [RH = 72%]
Pressure (altimeter): 29.88 inches Hg (1012.0 mb)
Winds: from the S (170 degrees) at 6 MPH (5 knots; 2.6 m/s)
Visibility: 6 or more miles (10+ km)
Ceiling: 5000 feet AGL
Clouds: scattered clouds at 2200 feet AGL
broken clouds at 5000 feet AGL
Weather: no significant weather observed at this time

METAR text: EICK 181230Z 15007KT 9999 BKN020 BKN050 16/10 Q1012 NOSIG
Conditions at: EICK (CORK ARPT/CORCAI, IE) observed 1230 UTC 18 June 2019
Temperature: 16.0°C (61°F)
Dewpoint: 10.0°C (50°F) [RH = 68%]
Pressure (altimeter): 29.88 inches Hg (1012.0 mb)
Winds: from the SSE (150 degrees) at 8 MPH (7 knots; 3.6 m/s)
Visibility: 6 or more miles (10+ km)
Ceiling: 2000 feet AGL
Clouds: broken clouds at 2000 feet AGL
broken clouds at 5000 feet AGL
Weather: no significant weather observed at this time

METAR text: EICK 181200Z 16005KT 9999 BKN020 16/10 Q1012 NOSIG
Conditions at: EICK (CORK ARPT/CORCAI, IE) observed 1200 UTC 18 June 2019
Temperature: 16.0°C (61°F)
Dewpoint: 10.0°C (50°F) [RH = 68%]
Pressure (altimeter): 29.88 inches Hg (1012.0 mb)
Winds: from the SSE (160 degrees) at 6 MPH (5 knots; 2.6 m/s)
Visibility: 6 or more miles (10+ km)
Ceiling: 2000 feet AGL
Clouds: broken clouds at 2000 feet AGL
Weather: no significant weather observed at this time

METAR text: EICK 181130Z 21004KT 140V290 9999 FEW018 SCT250 16/06 Q1012 NOSIG
Conditions at: EICK (CORK ARPT/CORCAI, IE) observed 1130 UTC 18 June 2019
Temperature: 16.0°C (61°F)
Dewpoint: 6.0°C (43°F) [RH = 51%]
Pressure (altimeter): 29.88 inches Hg (1012.0 mb)
Winds: from the SSW (210 degrees) at 5 MPH (4 knots; 2.1 m/s)
Visibility: 6 or more miles (10+ km)
Ceiling: at least 12,000 feet AGL
Clouds: few clouds at 1800 feet AGL
scattered clouds at 25000 feet AGL
Weather: no significant weather observed at this time

METAR text: EICK 181100Z 19004KT 9999 FEW018 SCT250 16/08 Q1012 NOSIG
Conditions at: EICK (CORK ARPT/CORCAI, IE) observed 1100 UTC 18 June 2019
Temperature: 16.0°C (61°F)
Dewpoint: 8.0°C (46°F) [RH = 59%]
Pressure (altimeter): 29.88 inches Hg (1012.0 mb)
Winds: from the S (190 degrees) at 5 MPH (4 knots; 2.1 m/s)
Visibility: 6 or more miles (10+ km)
Ceiling: at least 12,000 feet AGL
Clouds: few clouds at 1800 feet AGL
scattered clouds at 25000 feet AGL
Weather: no significant weather observed at this time

METAR text: EICK 181030Z 20004KT 160V280 9999 FEW018 SCT080 15/09 Q1013 NOSIG
Conditions at: EICK (CORK ARPT/CORCAI, IE) observed 1030 UTC 18 June 2019
Temperature: 15.0°C (59°F)
Dewpoint: 9.0°C (48°F) [RH = 67%]
Pressure (altimeter): 29.91 inches Hg (1013.0 mb)
Winds: from the SSW (200 degrees) at 5 MPH (4 knots; 2.1 m/s)
Visibility: 6 or more miles (10+ km)
Ceiling: at least 12,000 feet AGL
Clouds: few clouds at 1800 feet AGL
scattered clouds at 8000 feet AGL
Weather: no significant weather observed at this time

METAR text: EICK 181000Z 19005KT 140V240 9999 FEW012 BKN080 15/09 Q1013 NOSIG
Conditions at: EICK (CORK ARPT/CORCAI, IE) observed 1000 UTC 18 June 2019
Temperature: 15.0°C (59°F)
Dewpoint: 9.0°C (48°F) [RH = 67%]
Pressure (altimeter): 29.91 inches Hg (1013.0 mb)
Winds: from the S (190 degrees) at 6 MPH (5 knots; 2.6 m/s)
Visibility: 6 or more miles (10+ km)
Ceiling: 8000 feet AGL
Clouds: few clouds at 1200 feet AGL
broken clouds at 8000 feet AGL
Weather: no significant weather observed at this time

METAR text: EICK 180930Z 19003KT 080V250 9999 FEW008 SCT080 BKN130 14/10 Q1013 NOSIG
Conditions at: EICK (CORK ARPT/CORCAI, IE) observed 0930 UTC 18 June 2019
Temperature: 14.0°C (57°F)
Dewpoint: 10.0°C (50°F) [RH = 77%]
Pressure (altimeter): 29.91 inches Hg (1013.0 mb)
Winds: from the S (190 degrees) at 3 MPH (3 knots; 1.5 m/s)
Visibility: 6 or more miles (10+ km)
Ceiling: 13000 feet AGL
Clouds: few clouds at 800 feet AGL
scattered clouds at 8000 feet AGL
broken clouds at 13000 feet AGL
Weather: no significant weather observed at this time

METAR text: EICK 180900Z 33002KT 9999 FEW003 SCT080 BKN130 13/10 Q1013 NOSIG
Conditions at: EICK (CORK ARPT/CORCAI, IE) observed 0900 UTC 18 June 2019
Temperature: 13.0°C (55°F)
Dewpoint: 10.0°C (50°F) [RH = 82%]
Pressure (altimeter): 29.91 inches Hg (1013.0 mb)
Winds: from the NNW (330 degrees) at 2 MPH (2 knots; 1.0 m/s)
Visibility: 6 or more miles (10+ km)
Ceiling: 13000 feet AGL
Clouds: few clouds at 300 feet AGL
scattered clouds at 8000 feet AGL
broken clouds at 13000 feet AGL
Weather: no significant weather observed at this time

METAR text: EICK 180830Z 29002KT 5000 BR FEW001 SCT070 12/10 Q1013 BECMG 9999
Conditions at: EICK (CORK ARPT/CORCAI, IE) observed 0830 UTC 18 June 2019
Temperature: 12.0°C (54°F)
Dewpoint: 10.0°C (50°F) [RH = 88%]
Pressure (altimeter): 29.91 inches Hg (1013.0 mb)
Winds: from the WNW (290 degrees) at 2 MPH (2 knots; 1.0 m/s)
Visibility: 3 miles ( 5 km)
Ceiling: at least 12,000 feet AGL
Clouds: few clouds at 100 feet AGL
scattered clouds at 7000 feet AGL
Weather: BR  (mist)

METAR text: EICK 180800Z VRB03KT 0800 R16/P2000 R34/P2000 FG FEW001 SCT250 11/09 Q1013 BECMG 2000
Conditions at: EICK (CORK ARPT/CORCAI, IE) observed 0800 UTC 18 June 2019
Temperature: 11.0°C (52°F)
Dewpoint: 9.0°C (48°F) [RH = 87%]
Pressure (altimeter): 29.91 inches Hg (1013.0 mb)
Winds: variable direction winds at 3 MPH (3 knots; 1.5 m/s)
Visibility: 0.50 miles (0.80 km)
Ceiling: at least 12,000 feet AGL
Clouds: few clouds at 100 feet AGL
scattered clouds at 25000 feet AGL
Weather: FG  (fog)

METAR text: EICK 180730Z 28003KT 240V330 0600 R16/P2000 R34/P2000 FG SCT001 BKN080 11/09 Q1013 BECMG 2000
Conditions at: EICK (CORK ARPT/CORCAI, IE) observed 0730 UTC 18 June 2019
Temperature: 11.0°C (52°F)
Dewpoint: 9.0°C (48°F) [RH = 87%]
Pressure (altimeter): 29.91 inches Hg (1013.0 mb)
Winds: from the W (280 degrees) at 3 MPH (3 knots; 1.5 m/s)
Visibility: 0.37 miles (0.60 km)
Ceiling: 8000 feet AGL
Clouds: scattered clouds at 100 feet AGL
broken clouds at 8000 feet AGL
Weather: FG  (fog)

METAR text: EICK 180700Z 28004KT 0400 R16/P2000 R34/P2000 FG FEW001 SCT250 10/09 Q1013 BECMG 2000
Conditions at: EICK (CORK ARPT/CORCAI, IE) observed 0700 UTC 18 June 2019
Temperature: 10.0°C (50°F)
Dewpoint: 9.0°C (48°F) [RH = 93%]
Pressure (altimeter): 29.91 inches Hg (1013.0 mb)
Winds: from the W (280 degrees) at 5 MPH (4 knots; 2.1 m/s)
Visibility: 0.25 miles (0.40 km)
Ceiling: at least 12,000 feet AGL
Clouds: few clouds at 100 feet AGL
scattered clouds at 25000 feet AGL
Weather: FG  (fog)

METAR text: EICK 180630Z 29002KT 0600 R16/P2000 R34/P2000 FG FEW001 BKN150 10/09 Q1013 BECMG 1200
Conditions at: EICK (CORK ARPT/CORCAI, IE) observed 0630 UTC 18 June 2019
Temperature: 10.0°C (50°F)
Dewpoint: 9.0°C (48°F) [RH = 93%]
Pressure (altimeter): 29.91 inches Hg (1013.0 mb)
Winds: from the WNW (290 degrees) at 2 MPH (2 knots; 1.0 m/s)
Visibility: 0.37 miles (0.60 km)
Ceiling: 15000 feet AGL
Clouds: few clouds at 100 feet AGL
broken clouds at 15000 feet AGL
Weather: FG  (fog)

METAR text: EICK 180600Z 30003KT 0650 R16/0700N R34/P2000 FG FEW001 SCT090 09/09 Q1013 BECMG 1200
Conditions at: EICK (CORK ARPT/CORCAI, IE) observed 0600 UTC 18 June 2019
Temperature: 9.0°C (48°F)
Dewpoint: 9.0°C (48°F) [RH = 100%]
Pressure (altimeter): 29.91 inches Hg (1013.0 mb)
Winds: from the WNW (300 degrees) at 3 MPH (3 knots; 1.5 m/s)
Visibility: 0.40 miles (0.64 km)
Ceiling: at least 12,000 feet AGL
Clouds: few clouds at 100 feet AGL
scattered clouds at 9000 feet AGL
Weather: FG  (fog)

METAR text: EICK 180530Z 31004KT 0200 R16/0225N R34/0300N FG SCT001 SCT080 09/08 Q1013 BECMG 1200
Conditions at: EICK (CORK ARPT/CORCAI, IE) observed 0530 UTC 18 June 2019
Temperature: 9.0°C (48°F)
Dewpoint: 8.0°C (46°F) [RH = 93%]
Pressure (altimeter): 29.91 inches Hg (1013.0 mb)
Winds: from the NW (310 degrees) at 5 MPH (4 knots; 2.1 m/s)
Visibility: 0.12 miles (0.19 km)
Ceiling: at least 12,000 feet AGL
Clouds: scattered clouds at 100 feet AGL
scattered clouds at 8000 feet AGL
Weather: FG  (fog)

METAR text: EICK 180500Z 31004KT 0400 R16/0800D R34/1300U FG FEW001 09/08 Q1013 NOSIG
Conditions at: EICK (CORK ARPT/CORCAI, IE) observed 0500 UTC 18 June 2019
Temperature: 9.0°C (48°F)
Dewpoint: 8.0°C (46°F) [RH = 93%]
Pressure (altimeter): 29.91 inches Hg (1013.0 mb)
Winds: from the NW (310 degrees) at 5 MPH (4 knots; 2.1 m/s)
Visibility: 0.25 miles (0.40 km)
Ceiling: at least 12,000 feet AGL
Clouds: few clouds at 100 feet AGL
Weather: FG  (fog)

METAR text: EICK 180430Z 28004KT 0500 R16/0550U R34/P2000 FG FEW001 08/08 Q1013 NOSIG
Conditions at: EICK (CORK ARPT/CORCAI, IE) observed 0430 UTC 18 June 2019
Temperature: 8.0°C (46°F)
Dewpoint: 8.0°C (46°F) [RH = 100%]
Pressure (altimeter): 29.91 inches Hg (1013.0 mb)
Winds: from the W (280 degrees) at 5 MPH (4 knots; 2.1 m/s)
Visibility: 0.31 miles (0.50 km)
Ceiling: at least 12,000 feet AGL
Clouds: few clouds at 100 feet AGL
Weather: FG  (fog)

METAR text: EICK 180400Z 30005KT 1800 BR FEW001 09/08 Q1013 NOSIG
Conditions at: EICK (CORK ARPT/CORCAI, IE) observed 0400 UTC 18 June 2019
Temperature: 9.0°C (48°F)
Dewpoint: 8.0°C (46°F) [RH = 93%]
Pressure (altimeter): 29.91 inches Hg (1013.0 mb)
Winds: from the WNW (300 degrees) at 6 MPH (5 knots; 2.6 m/s)
Visibility: 1.12 miles (1.80 km)
Ceiling: at least 12,000 feet AGL
Clouds: few clouds at 100 feet AGL
Weather: BR  (mist)

METAR text: EICK 180330Z 30003KT 6000 FEW001 09/08 Q1013 NOSIG
Conditions at: EICK (CORK ARPT/CORCAI, IE) observed 0330 UTC 18 June 2019
Temperature: 9.0°C (48°F)
Dewpoint: 8.0°C (46°F) [RH = 93%]
Pressure (altimeter): 29.91 inches Hg (1013.0 mb)
Winds: from the WNW (300 degrees) at 3 MPH (3 knots; 1.5 m/s)
Visibility: 4 miles ( 6 km)
Ceiling: at least 12,000 feet AGL
Clouds: few clouds at 100 feet AGL
Weather: no significant weather observed at this time

METAR text: EICK 180300Z 29003KT 9999 FEW001 SCT140 09/08 Q1013 NOSIG
Conditions at: EICK (CORK ARPT/CORCAI, IE) observed 0300 UTC 18 June 2019
Temperature: 9.0°C (48°F)
Dewpoint: 8.0°C (46°F) [RH = 93%]
Pressure (altimeter): 29.91 inches Hg (1013.0 mb)
Winds: from the WNW (290 degrees) at 3 MPH (3 knots; 1.5 m/s)
Visibility: 6 or more miles (10+ km)
Ceiling: at least 12,000 feet AGL
Clouds: few clouds at 100 feet AGL
scattered clouds at 14000 feet AGL
Weather: no significant weather observed at this time

METAR text: EICK 180230Z 28004KT 9999 FEW001 10/09 Q1013 NOSIG
Conditions at: EICK (CORK ARPT/CORCAI, IE) observed 0230 UTC 18 June 2019
Temperature: 10.0°C (50°F)
Dewpoint: 9.0°C (48°F) [RH = 93%]
Pressure (altimeter): 29.91 inches Hg (1013.0 mb)
Winds: from the W (280 degrees) at 5 MPH (4 knots; 2.1 m/s)
Visibility: 6 or more miles (10+ km)
Ceiling: at least 12,000 feet AGL
Clouds: few clouds at 100 feet AGL
Weather: no significant weather observed at this time

METAR text: EICK 180200Z 25003KT 9999 FEW001 08/08 Q1014 NOSIG
Conditions at: EICK (CORK ARPT/CORCAI, IE) observed 0200 UTC 18 June 2019
Temperature: 8.0°C (46°F)
Dewpoint: 8.0°C (46°F) [RH = 100%]
Pressure (altimeter): 29.94 inches Hg (1014.0 mb)
Winds: from the WSW (250 degrees) at 3 MPH (3 knots; 1.5 m/s)
Visibility: 6 or more miles (10+ km)
Ceiling: at least 12,000 feet AGL
Clouds: few clouds at 100 feet AGL
Weather: no significant weather observed at this time

METAR text: EICK 180130Z 26004KT 9999 FEW001 09/08 Q1014 NOSIG
Conditions at: EICK (CORK ARPT/CORCAI, IE) observed 0130 UTC 18 June 2019
Temperature: 9.0°C (48°F)
Dewpoint: 8.0°C (46°F) [RH = 93%]
Pressure (altimeter): 29.94 inches Hg (1014.0 mb)
Winds: from the W (260 degrees) at 5 MPH (4 knots; 2.1 m/s)
Visibility: 6 or more miles (10+ km)
Ceiling: at least 12,000 feet AGL
Clouds: few clouds at 100 feet AGL
Weather: no significant weather observed at this time

METAR text: EICK 180100Z 28006KT 9999 FEW016 10/09 Q1014 NOSIG
Conditions at: EICK (CORK ARPT/CORCAI, IE) observed 0100 UTC 18 June 2019
Temperature: 10.0°C (50°F)
Dewpoint: 9.0°C (48°F) [RH = 93%]
Pressure (altimeter): 29.94 inches Hg (1014.0 mb)
Winds: from the W (280 degrees) at 7 MPH (6 knots; 3.1 m/s)
Visibility: 6 or more miles (10+ km)
Ceiling: at least 12,000 feet AGL
Clouds: few clouds at 1600 feet AGL
Weather: no significant weather observed at this time

METAR text: EICK 180030Z 26004KT 9999 FEW015 09/09 Q1014 NOSIG
Conditions at: EICK (CORK ARPT/CORCAI, IE) observed 0030 UTC 18 June 2019
Temperature: 9.0°C (48°F)
Dewpoint: 9.0°C (48°F) [RH = 100%]
Pressure (altimeter): 29.94 inches Hg (1014.0 mb)
Winds: from the W (260 degrees) at 5 MPH (4 knots; 2.1 m/s)
Visibility: 6 or more miles (10+ km)
Ceiling: at least 12,000 feet AGL
Clouds: few clouds at 1500 feet AGL
Weather: no significant weather observed at this time

METAR text: EICK 180000Z 26006KT 9999 FEW015 09/09 Q1014 NOSIG
Conditions at: EICK (CORK ARPT/CORCAI, IE) observed 0000 UTC 18 June 2019
Temperature: 9.0°C (48°F)
Dewpoint: 9.0°C (48°F) [RH = 100%]
Pressure (altimeter): 29.94 inches Hg (1014.0 mb)
Winds: from the W (260 degrees) at 7 MPH (6 knots; 3.1 m/s)
Visibility: 6 or more miles (10+ km)
Ceiling: at least 12,000 feet AGL
Clouds: few clouds at 1500 feet AGL
Weather: no significant weather observed at this time

METAR text: EICK 172330Z VRB03KT 9999 FEW015 09/09 Q1014 NOSIG
Conditions at: EICK (CORK ARPT/CORCAI, IE) observed 2330 UTC 17 June 2019
Temperature: 9.0°C (48°F)
Dewpoint: 9.0°C (48°F) [RH = 100%]
Pressure (altimeter): 29.94 inches Hg (1014.0 mb)
Winds: variable direction winds at 3 MPH (3 knots; 1.5 m/s)
Visibility: 6 or more miles (10+ km)
Ceiling: at least 12,000 feet AGL
Clouds: few clouds at 1500 feet AGL
Weather: no significant weather observed at this time

METAR text: EICK 172300Z VRB02KT 9999 FEW015 09/08 Q1014 NOSIG
Conditions at: EICK (CORK ARPT/CORCAI, IE) observed 2300 UTC 17 June 2019
Temperature: 9.0°C (48°F)
Dewpoint: 8.0°C (46°F) [RH = 93%]
Pressure (altimeter): 29.94 inches Hg (1014.0 mb)
Winds: variable direction winds at 2 MPH (2 knots; 1.0 m/s)
Visibility: 6 or more miles (10+ km)
Ceiling: at least 12,000 feet AGL
Clouds: few clouds at 1500 feet AGL
Weather: no significant weather observed at this time

METAR text: EICK 172230Z 22005KT 190V260 9999 FEW015 09/09 Q1014 NOSIG
Conditions at: EICK (CORK ARPT/CORCAI, IE) observed 2230 UTC 17 June 2019
Temperature: 9.0°C (48°F)
Dewpoint: 9.0°C (48°F) [RH = 100%]
Pressure (altimeter): 29.94 inches Hg (1014.0 mb)
Winds: from the SW (220 degrees) at 6 MPH (5 knots; 2.6 m/s)
Visibility: 6 or more miles (10+ km)
Ceiling: at least 12,000 feet AGL
Clouds: few clouds at 1500 feet AGL
Weather: no significant weather observed at this time

METAR text: EICK 172200Z VRB03KT 9999 FEW015 09/08 Q1014 NOSIG
Conditions at: EICK (CORK ARPT/CORCAI, IE) observed 2200 UTC 17 June 2019
Temperature: 9.0°C (48°F)
Dewpoint: 8.0°C (46°F) [RH = 93%]
Pressure (altimeter): 29.94 inches Hg (1014.0 mb)
Winds: variable direction winds at 3 MPH (3 knots; 1.5 m/s)
Visibility: 6 or more miles (10+ km)
Ceiling: at least 12,000 feet AGL
Clouds: few clouds at 1500 feet AGL
Weather: no significant weather observed at this time

METAR text: EICK 172130Z VRB03KT 9999 FEW016 10/09 Q1014 NOSIG
Conditions at: EICK (CORK ARPT/CORCAI, IE) observed 2130 UTC 17 June 2019
Temperature: 10.0°C (50°F)
Dewpoint: 9.0°C (48°F) [RH = 93%]
Pressure (altimeter): 29.94 inches Hg (1014.0 mb)
Winds: variable direction winds at 3 MPH (3 knots; 1.5 m/s)
Visibility: 6 or more miles (10+ km)
Ceiling: at least 12,000 feet AGL
Clouds: few clouds at 1600 feet AGL
Weather: no significant weather observed at this time

METAR text: EICK 172100Z 23003KT 9999 FEW016 11/09 Q1014 NOSIG
Conditions at: EICK (CORK ARPT/CORCAI, IE) observed 2100 UTC 17 June 2019
Temperature: 11.0°C (52°F)
Dewpoint: 9.0°C (48°F) [RH = 87%]
Pressure (altimeter): 29.94 inches Hg (1014.0 mb)
Winds: from the SW (230 degrees) at 3 MPH (3 knots; 1.5 m/s)
Visibility: 6 or more miles (10+ km)
Ceiling: at least 12,000 feet AGL
Clouds: few clouds at 1600 feet AGL
Weather: no significant weather observed at this time

METAR text: EICK 172030Z 24006KT 9999 FEW016 12/10 Q1013 NOSIG
Conditions at: EICK (CORK ARPT/CORCAI, IE) observed 2030 UTC 17 June 2019
Temperature: 12.0°C (54°F)
Dewpoint: 10.0°C (50°F) [RH = 88%]
Pressure (altimeter): 29.91 inches Hg (1013.0 mb)
Winds: from the WSW (240 degrees) at 7 MPH (6 knots; 3.1 m/s)
Visibility: 6 or more miles (10+ km)
Ceiling: at least 12,000 feet AGL
Clouds: few clouds at 1600 feet AGL
Weather: no significant weather observed at this time

METAR text: EICK 172000Z 22010KT 9999 FEW017 13/10 Q1013 NOSIG
Conditions at: EICK (CORK ARPT/CORCAI, IE) observed 2000 UTC 17 June 2019
Temperature: 13.0°C (55°F)
Dewpoint: 10.0°C (50°F) [RH = 82%]
Pressure (altimeter): 29.91 inches Hg (1013.0 mb)
Winds: from the SW (220 degrees) at 12 MPH (10 knots; 5.1 m/s)
Visibility: 6 or more miles (10+ km)
Ceiling: at least 12,000 feet AGL
Clouds: few clouds at 1700 feet AGL
Weather: no significant weather observed at this time

METAR text: EICK 171930Z 22010KT 9999 FEW017 13/10 Q1013 NOSIG
Conditions at: EICK (CORK ARPT/CORCAI, IE) observed 1930 UTC 17 June 2019
Temperature: 13.0°C (55°F)
Dewpoint: 10.0°C (50°F) [RH = 82%]
Pressure (altimeter): 29.91 inches Hg (1013.0 mb)
Winds: from the SW (220 degrees) at 12 MPH (10 knots; 5.1 m/s)
Visibility: 6 or more miles (10+ km)
Ceiling: at least 12,000 feet AGL
Clouds: few clouds at 1700 feet AGL
Weather: no significant weather observed at this time

METAR text: EICK 171900Z 22012KT 9999 FEW019 14/10 Q1013 NOSIG
Conditions at: EICK (CORK ARPT/CORCAI, IE) observed 1900 UTC 17 June 2019
Temperature: 14.0°C (57°F)
Dewpoint: 10.0°C (50°F) [RH = 77%]
Pressure (altimeter): 29.91 inches Hg (1013.0 mb)
Winds: from the SW (220 degrees) at 14 MPH (12 knots; 6.2 m/s)
Visibility: 6 or more miles (10+ km)
Ceiling: at least 12,000 feet AGL
Clouds: few clouds at 1900 feet AGL
Weather: no significant weather observed at this time

METAR text: EICK 171830Z 22013KT 9999 SCT020 SCT050 14/10 Q1013 NOSIG
Conditions at: EICK (CORK ARPT/CORCAI, IE) observed 1830 UTC 17 June 2019
Temperature: 14.0°C (57°F)
Dewpoint: 10.0°C (50°F) [RH = 77%]
Pressure (altimeter): 29.91 inches Hg (1013.0 mb)
Winds: from the SW (220 degrees) at 15 MPH (13 knots; 6.7 m/s)
Visibility: 6 or more miles (10+ km)
Ceiling: at least 12,000 feet AGL
Clouds: scattered clouds at 2000 feet AGL
scattered clouds at 5000 feet AGL
Weather: no significant weather observed at this time

METAR text: EICK 171800Z 21013KT 9999 SCT020 SCT050 14/10 Q1013 NOSIG
Conditions at: EICK (CORK ARPT/CORCAI, IE) observed 1800 UTC 17 June 2019
Temperature: 14.0°C (57°F)
Dewpoint: 10.0°C (50°F) [RH = 77%]
Pressure (altimeter): 29.91 inches Hg (1013.0 mb)
Winds: from the SSW (210 degrees) at 15 MPH (13 knots; 6.7 m/s)
Visibility: 6 or more miles (10+ km)
Ceiling: at least 12,000 feet AGL
Clouds: scattered clouds at 2000 feet AGL
scattered clouds at 5000 feet AGL
Weather: no significant weather observed at this time

METAR text: EICK 171730Z 22012KT 9999 BKN027 15/11 Q1013 NOSIG
Conditions at: EICK (CORK ARPT/CORCAI, IE) observed 1730 UTC 17 June 2019
Temperature: 15.0°C (59°F)
Dewpoint: 11.0°C (52°F) [RH = 77%]
Pressure (altimeter): 29.91 inches Hg (1013.0 mb)
Winds: from the SW (220 degrees) at 14 MPH (12 knots; 6.2 m/s)
Visibility: 6 or more miles (10+ km)
Ceiling: 2700 feet AGL
Clouds: broken clouds at 2700 feet AGL
Weather: no significant weather observed at this time

METAR text: EICK 171700Z 22013KT 9999 SCT027 15/10 Q1013 NOSIG
Conditions at: EICK (CORK ARPT/CORCAI, IE) observed 1700 UTC 17 June 2019
Temperature: 15.0°C (59°F)
Dewpoint: 10.0°C (50°F) [RH = 72%]
Pressure (altimeter): 29.91 inches Hg (1013.0 mb)
Winds: from the SW (220 degrees) at 15 MPH (13 knots; 6.7 m/s)
Visibility: 6 or more miles (10+ km)
Ceiling: at least 12,000 feet AGL
Clouds: scattered clouds at 2700 feet AGL
Weather: no significant weather observed at this time

METAR text: EICK 171630Z 22015KT 9999 FEW018 SCT060 16/10 Q1013 NOSIG
Conditions at: EICK (CORK ARPT/CORCAI, IE) observed 1630 UTC 17 June 2019
Temperature: 16.0°C (61°F)
Dewpoint: 10.0°C (50°F) [RH = 68%]
Pressure (altimeter): 29.91 inches Hg (1013.0 mb)
Winds: from the SW (220 degrees) at 17 MPH (15 knots; 7.7 m/s)
Visibility: 6 or more miles (10+ km)
Ceiling: at least 12,000 feet AGL
Clouds: few clouds at 1800 feet AGL
scattered clouds at 6000 feet AGL
Weather: no significant weather observed at this time

METAR text: EICK 171600Z 21014KT 9999 FEW018 SCT060 16/10 Q1013 NOSIG
Conditions at: EICK (CORK ARPT/CORCAI, IE) observed 1600 UTC 17 June 2019
Temperature: 16.0°C (61°F)
Dewpoint: 10.0°C (50°F) [RH = 68%]
Pressure (altimeter): 29.91 inches Hg (1013.0 mb)
Winds: from the SSW (210 degrees) at 16 MPH (14 knots; 7.2 m/s)
Visibility: 6 or more miles (10+ km)
Ceiling: at least 12,000 feet AGL
Clouds: few clouds at 1800 feet AGL
scattered clouds at 6000 feet AGL
Weather: no significant weather observed at this time

METAR text: EICK 171530Z 22013KT 9999 SCT018 BKN050 15/10 Q1013 NOSIG
Conditions at: EICK (CORK ARPT/CORCAI, IE) observed 1530 UTC 17 June 2019
Temperature: 15.0°C (59°F)
Dewpoint: 10.0°C (50°F) [RH = 72%]
Pressure (altimeter): 29.91 inches Hg (1013.0 mb)
Winds: from the SW (220 degrees) at 15 MPH (13 knots; 6.7 m/s)
Visibility: 6 or more miles (10+ km)
Ceiling: 5000 feet AGL
Clouds: scattered clouds at 1800 feet AGL
broken clouds at 5000 feet AGL
Weather: no significant weather observed at this time

METAR text: EICK 171500Z 21015KT 9999 SCT022 BKN050 14/10 Q1013 NOSIG
Conditions at: EICK (CORK ARPT/CORCAI, IE) observed 1500 UTC 17 June 2019
Temperature: 14.0°C (57°F)
Dewpoint: 10.0°C (50°F) [RH = 77%]
Pressure (altimeter): 29.91 inches Hg (1013.0 mb)
Winds: from the SSW (210 degrees) at 17 MPH (15 knots; 7.7 m/s)
Visibility: 6 or more miles (10+ km)
Ceiling: 5000 feet AGL
Clouds: scattered clouds at 2200 feet AGL
broken clouds at 5000 feet AGL
Weather: no significant weather observed at this time

METAR text: EICK 171430Z 22014KT 9999 BKN022 BKN050 15/10 Q1013 NOSIG
Conditions at: EICK (CORK ARPT/CORCAI, IE) observed 1430 UTC 17 June 2019
Temperature: 15.0°C (59°F)
Dewpoint: 10.0°C (50°F) [RH = 72%]
Pressure (altimeter): 29.91 inches Hg (1013.0 mb)
Winds: from the SW (220 degrees) at 16 MPH (14 knots; 7.2 m/s)
Visibility: 6 or more miles (10+ km)
Ceiling: 2200 feet AGL
Clouds: broken clouds at 2200 feet AGL
broken clouds at 5000 feet AGL
Weather: no significant weather observed at this time

METAR text: EICK 171400Z 22013KT 9999 BKN022 BKN050 14/11 Q1013 NOSIG
Conditions at: EICK (CORK ARPT/CORCAI, IE) observed 1400 UTC 17 June 2019
Temperature: 14.0°C (57°F)
Dewpoint: 11.0°C (52°F) [RH = 82%]
Pressure (altimeter): 29.91 inches Hg (1013.0 mb)
Winds: from the SW (220 degrees) at 15 MPH (13 knots; 6.7 m/s)
Visibility: 6 or more miles (10+ km)
Ceiling: 2200 feet AGL
Clouds: broken clouds at 2200 feet AGL
broken clouds at 5000 feet AGL
Weather: no significant weather observed at this time

METAR text: EICK 171330Z 21013KT 9999 SCT022 BKN050 15/10 Q1013 NOSIG
Conditions at: EICK (CORK ARPT/CORCAI, IE) observed 1330 UTC 17 June 2019
Temperature: 15.0°C (59°F)
Dewpoint: 10.0°C (50°F) [RH = 72%]
Pressure (altimeter): 29.91 inches Hg (1013.0 mb)
Winds: from the SSW (210 degrees) at 15 MPH (13 knots; 6.7 m/s)
Visibility: 6 or more miles (10+ km)
Ceiling: 5000 feet AGL
Clouds: scattered clouds at 2200 feet AGL
broken clouds at 5000 feet AGL
Weather: no significant weather observed at this time

METAR text: EICK 171300Z 22012KT 9999 SCT022 BKN050 15/10 Q1012 NOSIG
Conditions at: EICK (CORK ARPT/CORCAI, IE) observed 1300 UTC 17 June 2019
Temperature: 15.0°C (59°F)
Dewpoint: 10.0°C (50°F) [RH = 72%]
Pressure (altimeter): 29.88 inches Hg (1012.0 mb)
Winds: from the SW (220 degrees) at 14 MPH (12 knots; 6.2 m/s)
Visibility: 6 or more miles (10+ km)
Ceiling: 5000 feet AGL
Clouds: scattered clouds at 2200 feet AGL
broken clouds at 5000 feet AGL
Weather: no significant weather observed at this time

METAR text: EICK 171230Z 22014KT 190V250 9999 SCT018 BKN060 15/11 Q1012 NOSIG
Conditions at: EICK (CORK ARPT/CORCAI, IE) observed 1230 UTC 17 June 2019
Temperature: 15.0°C (59°F)
Dewpoint: 11.0°C (52°F) [RH = 77%]
Pressure (altimeter): 29.88 inches Hg (1012.0 mb)
Winds: from the SW (220 degrees) at 16 MPH (14 knots; 7.2 m/s)
Visibility: 6 or more miles (10+ km)
Ceiling: 6000 feet AGL
Clouds: scattered clouds at 1800 feet AGL
broken clouds at 6000 feet AGL
Weather: no significant weather observed at this time

METAR text: EICK 171200Z 22014KT 200V260 9999 SCT018 BKN050 14/10 Q1012 NOSIG
Conditions at: EICK (CORK ARPT/CORCAI, IE) observed 1200 UTC 17 June 2019
Temperature: 14.0°C (57°F)
Dewpoint: 10.0°C (50°F) [RH = 77%]
Pressure (altimeter): 29.88 inches Hg (1012.0 mb)
Winds: from the SW (220 degrees) at 16 MPH (14 knots; 7.2 m/s)
Visibility: 6 or more miles (10+ km)
Ceiling: 5000 feet AGL
Clouds: scattered clouds at 1800 feet AGL
broken clouds at 5000 feet AGL
Weather: no significant weather observed at this time

METAR text: EICK 171130Z 22014KT 200V260 9999 SCT018 BKN050 14/10 Q1012 NOSIG
Conditions at: EICK (CORK ARPT/CORCAI, IE) observed 1130 UTC 17 June 2019
Temperature: 14.0°C (57°F)
Dewpoint: 10.0°C (50°F) [RH = 77%]
Pressure (altimeter): 29.88 inches Hg (1012.0 mb)
Winds: from the SW (220 degrees) at 16 MPH (14 knots; 7.2 m/s)
Visibility: 6 or more miles (10+ km)
Ceiling: 5000 feet AGL
Clouds: scattered clouds at 1800 feet AGL
broken clouds at 5000 feet AGL
Weather: no significant weather observed at this time

METAR text: EICK 171100Z 21013KT 9999 SCT018 BKN050 14/11 Q1012 NOSIG
Conditions at: EICK (CORK ARPT/CORCAI, IE) observed 1100 UTC 17 June 2019
Temperature: 14.0°C (57°F)
Dewpoint: 11.0°C (52°F) [RH = 82%]
Pressure (altimeter): 29.88 inches Hg (1012.0 mb)
Winds: from the SSW (210 degrees) at 15 MPH (13 knots; 6.7 m/s)
Visibility: 6 or more miles (10+ km)
Ceiling: 5000 feet AGL
Clouds: scattered clouds at 1800 feet AGL
broken clouds at 5000 feet AGL
Weather: no significant weather observed at this time

METAR text: EICK 171030Z 22013KT 9999 SCT017 BKN050 13/10 Q1012 NOSIG
Conditions at: EICK (CORK ARPT/CORCAI, IE) observed 1030 UTC 17 June 2019
Temperature: 13.0°C (55°F)
Dewpoint: 10.0°C (50°F) [RH = 82%]
Pressure (altimeter): 29.88 inches Hg (1012.0 mb)
Winds: from the SW (220 degrees) at 15 MPH (13 knots; 6.7 m/s)
Visibility: 6 or more miles (10+ km)
Ceiling: 5000 feet AGL
Clouds: scattered clouds at 1700 feet AGL
broken clouds at 5000 feet AGL
Weather: no significant weather observed at this time

METAR text: EICK 171000Z 22012KT 9999 BKN017 BKN050 12/10 Q1012 NOSIG
Conditions at: EICK (CORK ARPT/CORCAI, IE) observed 1000 UTC 17 June 2019
Temperature: 12.0°C (54°F)
Dewpoint: 10.0°C (50°F) [RH = 88%]
Pressure (altimeter): 29.88 inches Hg (1012.0 mb)
Winds: from the SW (220 degrees) at 14 MPH (12 knots; 6.2 m/s)
Visibility: 6 or more miles (10+ km)
Ceiling: 1700 feet AGL
Clouds: broken clouds at 1700 feet AGL
broken clouds at 5000 feet AGL
Weather: no significant weather observed at this time

METAR text: EICK 170930Z 23012KT 9999 FEW014 BKN022 BKN050 13/09 Q1012 NOSIG
Conditions at: EICK (CORK ARPT/CORCAI, IE) observed 0930 UTC 17 June 2019
Temperature: 13.0°C (55°F)
Dewpoint: 9.0°C (48°F) [RH = 77%]
Pressure (altimeter): 29.88 inches Hg (1012.0 mb)
Winds: from the SW (230 degrees) at 14 MPH (12 knots; 6.2 m/s)
Visibility: 6 or more miles (10+ km)
Ceiling: 2200 feet AGL
Clouds: few clouds at 1400 feet AGL
broken clouds at 2200 feet AGL
broken clouds at 5000 feet AGL
Weather: no significant weather observed at this time

METAR text: EICK 170900Z 22010KT 9999 FEW014 BKN022 BKN050 13/10 Q1012 NOSIG
Conditions at: EICK (CORK ARPT/CORCAI, IE) observed 0900 UTC 17 June 2019
Temperature: 13.0°C (55°F)
Dewpoint: 10.0°C (50°F) [RH = 82%]
Pressure (altimeter): 29.88 inches Hg (1012.0 mb)
Winds: from the SW (220 degrees) at 12 MPH (10 knots; 5.1 m/s)
Visibility: 6 or more miles (10+ km)
Ceiling: 2200 feet AGL
Clouds: few clouds at 1400 feet AGL
broken clouds at 2200 feet AGL
broken clouds at 5000 feet AGL
Weather: no significant weather observed at this time

METAR text: EICK 170830Z 23011KT 9999 FEW012 BKN022 13/10 Q1012 NOSIG
Conditions at: EICK (CORK ARPT/CORCAI, IE) observed 0830 UTC 17 June 2019
Temperature: 13.0°C (55°F)
Dewpoint: 10.0°C (50°F) [RH = 82%]
Pressure (altimeter): 29.88 inches Hg (1012.0 mb)
Winds: from the SW (230 degrees) at 13 MPH (11 knots; 5.7 m/s)
Visibility: 6 or more miles (10+ km)
Ceiling: 2200 feet AGL
Clouds: few clouds at 1200 feet AGL
broken clouds at 2200 feet AGL
Weather: no significant weather observed at this time

METAR text: EICK 170800Z 22014KT 9999 SCT012 BKN018 13/10 Q1011 NOSIG
Conditions at: EICK (CORK ARPT/CORCAI, IE) observed 0800 UTC 17 June 2019
Temperature: 13.0°C (55°F)
Dewpoint: 10.0°C (50°F) [RH = 82%]
Pressure (altimeter): 29.85 inches Hg (1011.0 mb)
Winds: from the SW (220 degrees) at 16 MPH (14 knots; 7.2 m/s)
Visibility: 6 or more miles (10+ km)
Ceiling: 1800 feet AGL
Clouds: scattered clouds at 1200 feet AGL
broken clouds at 1800 feet AGL
Weather: no significant weather observed at this time

METAR text: EICK 170730Z 22009KT 200V260 9999 SCT012 BKN018 12/10 Q1011 NOSIG
Conditions at: EICK (CORK ARPT/CORCAI, IE) observed 0730 UTC 17 June 2019
Temperature: 12.0°C (54°F)
Dewpoint: 10.0°C (50°F) [RH = 88%]
Pressure (altimeter): 29.85 inches Hg (1011.0 mb)
Winds: from the SW (220 degrees) at 10 MPH (9 knots; 4.6 m/s)
Visibility: 6 or more miles (10+ km)
Ceiling: 1800 feet AGL
Clouds: scattered clouds at 1200 feet AGL
broken clouds at 1800 feet AGL
Weather: no significant weather observed at this time

METAR text: EICK 170700Z 22012KT 9999 FEW008 SCT012 BKN018 12/11 Q1011 NOSIG
Conditions at: EICK (CORK ARPT/CORCAI, IE) observed 0700 UTC 17 June 2019
Temperature: 12.0°C (54°F)
Dewpoint: 11.0°C (52°F) [RH = 94%]
Pressure (altimeter): 29.85 inches Hg (1011.0 mb)
Winds: from the SW (220 degrees) at 14 MPH (12 knots; 6.2 m/s)
Visibility: 6 or more miles (10+ km)
Ceiling: 1800 feet AGL
Clouds: few clouds at 800 feet AGL
scattered clouds at 1200 feet AGL
broken clouds at 1800 feet AGL
Weather: no significant weather observed at this time

Forecast for: EICK (CORK ARPT/CORCAI, IE)
Text: TAF EICK 181700Z 1818/1918 19010KT 9999 FEW014 SCT030
Forecast period: 1800 to 2000 UTC 18 June 2019
Forecast type: FROM: standard forecast or significant change
Winds: from the S (190 degrees) at 12 MPH (10 knots; 5.1 m/s)
Visibility: 6 or more miles 10+ km)
Ceiling: at least 12,000 feet AGL
Clouds: few clouds at 1400 feet AGL
scattered clouds at 3000 feet AGL
Weather: no significant weather forecast for this period
Text: BECMG 1820/1822 33010KT
Forecast period: 2000 UTC 18 June 2019 to 0900 UTC 19 June 2019
Forecast type: BECOMING: Conditions expected to become as follows by 2200 UTC 18 June 2019
Winds: from the NNW (330 degrees) at 12 MPH (10 knots; 5.1 m/s)
Visibility: 6 or more miles 10+ km)
Ceiling: at least 12,000 feet AGL
Clouds: few clouds at 1400 feet AGL
scattered clouds at 3000 feet AGL
Weather: no significant weather forecast for this period
Text: BECMG 1909/1911 29010KT
Forecast period: 0900 to 1800 UTC 19 June 2019
Forecast type: BECOMING: Conditions expected to become as follows by 1100 UTC 19 June 2019
Winds: from the WNW (290 degrees) at 12 MPH (10 knots; 5.1 m/s)
Visibility: 6 or more miles 10+ km)
Ceiling: at least 12,000 feet AGL
Clouds: few clouds at 1400 feet AGL
scattered clouds at 3000 feet AGL
Weather: no significant weather forecast for this period
Text: TEMPO 1911/1918 FEW018CB BKN020
Forecast period: 1100 to 1800 UTC 19 June 2019
Forecast type: TEMPORARY: The following changes expected for less than half the time period
Visibility: missing
Ceiling: 2000 feet AGL
Clouds: few clouds at 1800 feet AGL
broken clouds at 2000 feet AGL
Weather: no significant weather forecast for this period